createdAt,value
2023-05-15T00:02:33.820Z,52.11
2023-05-15T00:05:19.690Z,52.10
2023-05-15T00:08:05.595Z,52.20
2023-05-15T00:11:00.946Z,52.27
2023-05-15T00:13:47.444Z,52.21
2023-05-15T00:16:32.660Z,52.10
2023-05-15T00:19:17.919Z,52.26
2023-05-15T00:22:03.354Z,52.22
2023-05-15T00:24:48.661Z,52.11
2023-05-15T00:27:34.098Z,52.12
2023-05-15T00:30:22.043Z,52.20
2023-05-15T00:33:07.882Z,52.09
2023-05-15T00:35:53.186Z,52.24
2023-05-15T00:38:38.468Z,52.09
2023-05-15T00:41:24.721Z,52.21
2023-05-15T00:44:11.537Z,52.04
2023-05-15T00:46:59.288Z,52.23
2023-05-15T00:49:45.036Z,52.13
2023-05-15T00:52:30.293Z,52.09
2023-05-15T00:55:16.608Z,52.13
2023-05-15T00:58:03.899Z,52.06
2023-05-15T01:00:51.163Z,52.20
2023-05-15T01:03:36.756Z,52.10
2023-05-15T01:06:22.262Z,52.28
2023-05-15T01:09:08.380Z,52.27
2023-05-15T01:11:55.176Z,52.47
2023-05-15T01:14:40.763Z,52.43
2023-05-15T01:17:26.290Z,52.40
2023-05-15T01:20:15.564Z,52.30
2023-05-15T01:23:14.266Z,52.44
2023-05-15T01:26:22.037Z,52.31
2023-05-15T01:29:22.632Z,52.45
2023-05-15T01:32:25.212Z,52.44
2023-05-15T01:35:35.901Z,52.35
2023-05-15T01:38:44.836Z,52.28
2023-05-15T01:41:49.545Z,52.39
2023-05-15T01:44:38.451Z,52.53
2023-05-15T01:47:33.445Z,52.35
2023-05-15T01:50:21.410Z,52.43
2023-05-15T01:53:08.738Z,52.36
2023-05-15T01:55:55.100Z,52.46
2023-05-15T01:58:41.461Z,52.47
2023-05-15T02:01:27.957Z,52.34
2023-05-15T02:04:14.429Z,52.45
2023-05-15T02:07:02.863Z,52.34
2023-05-15T02:09:48.302Z,52.24
2023-05-15T02:12:34.925Z,52.38
2023-05-15T02:15:23.699Z,52.41
2023-05-15T02:18:09.476Z,52.34
2023-05-15T02:20:54.973Z,52.44
2023-05-15T02:23:40.982Z,52.38
2023-05-15T02:26:30.896Z,52.37
2023-05-15T02:29:26.238Z,52.34
2023-05-15T02:32:21.469Z,52.37
2023-05-15T02:35:32.610Z,52.26
2023-05-15T02:38:40.979Z,52.44
2023-05-15T02:41:27.269Z,52.32
2023-05-15T02:44:15.098Z,52.26
2023-05-15T02:47:00.810Z,52.22
2023-05-15T02:49:46.740Z,52.61
2023-05-15T02:52:34.367Z,52.94
2023-05-15T02:55:19.801Z,53.08
2023-05-15T02:58:05.383Z,51.65
2023-05-15T03:00:50.871Z,51.96
2023-05-15T03:03:36.352Z,52.31
2023-05-15T03:06:21.771Z,52.06
2023-05-15T03:09:07.295Z,52.41
2023-05-15T03:11:52.641Z,52.20
2023-05-15T03:14:37.869Z,52.20
2023-05-15T03:17:23.070Z,52.20
2023-05-15T03:20:09.071Z,52.29
2023-05-15T03:22:54.706Z,52.11
2023-05-15T03:25:40.085Z,52.15
2023-05-15T03:28:25.682Z,52.27
2023-05-15T03:31:11.409Z,52.29
2023-05-15T03:33:57.081Z,52.10
2023-05-15T03:36:42.383Z,52.54
2023-05-15T03:39:27.620Z,52.29
2023-05-15T03:42:12.924Z,52.36
2023-05-15T03:44:59.422Z,52.36
2023-05-15T03:47:44.730Z,52.29
2023-05-15T03:50:31.294Z,53.49
2023-05-15T03:53:17.929Z,54.06
2023-05-15T03:56:04.040Z,54.13
2023-05-15T03:58:49.490Z,54.27
2023-05-15T04:01:44.086Z,54.33
2023-05-15T04:04:37.631Z,54.41
2023-05-15T04:07:23.255Z,54.31
2023-05-15T04:10:09.122Z,54.00
2023-05-15T04:12:54.400Z,54.01
2023-05-15T04:15:40.798Z,54.29
2023-05-15T04:18:26.414Z,53.96
2023-05-15T04:21:12.068Z,53.83
2023-05-15T04:23:57.283Z,54.22
2023-05-15T04:26:42.550Z,54.35
2023-05-15T04:29:27.875Z,54.44
2023-05-15T04:32:14.811Z,54.54
2023-05-15T04:35:01.421Z,54.44
2023-05-15T04:37:46.946Z,54.62
2023-05-15T04:40:32.377Z,54.15
2023-05-15T04:43:18.077Z,54.05
2023-05-15T04:46:06.256Z,53.82
2023-05-15T04:48:52.281Z,53.61
2023-05-15T04:51:38.007Z,53.39
2023-05-15T04:54:23.573Z,53.89
2023-05-15T04:57:09.319Z,54.31
2023-05-15T04:59:54.665Z,54.20
2023-05-15T05:03:05.147Z,55.07
2023-05-15T05:05:50.367Z,56.27
2023-05-15T05:08:35.794Z,56.27
2023-05-15T05:11:21.637Z,54.88
2023-05-15T05:14:07.921Z,55.26
2023-05-15T05:16:53.660Z,55.21
2023-05-15T05:19:38.884Z,55.26
2023-05-15T05:22:24.267Z,55.12
2023-05-15T05:25:09.773Z,55.20
2023-05-15T05:27:54.779Z,55.19
2023-05-15T05:30:40.088Z,55.41
2023-05-15T05:33:25.290Z,55.30
2023-05-15T05:36:10.883Z,54.92
2023-05-15T05:38:56.361Z,55.06
2023-05-15T05:41:41.721Z,54.88
2023-05-15T05:44:27.163Z,54.86
2023-05-15T05:47:12.420Z,54.69
2023-05-15T05:49:57.666Z,54.89
2023-05-15T05:52:42.798Z,54.82
2023-05-15T05:55:28.232Z,54.54
2023-05-15T05:58:21.676Z,54.74
2023-05-15T06:01:10.632Z,54.80
2023-05-15T06:03:56.333Z,54.81
2023-05-15T06:06:42.257Z,54.70
2023-05-15T06:09:27.949Z,54.52
2023-05-15T06:12:13.316Z,54.51
2023-05-15T06:14:58.752Z,54.48
2023-05-15T06:17:43.975Z,54.41
2023-05-15T06:20:29.205Z,54.44
2023-05-15T06:23:14.547Z,54.28
2023-05-15T06:26:01.695Z,54.18
2023-05-15T06:28:47.483Z,54.26
2023-05-15T06:31:32.860Z,54.38
2023-05-15T06:34:18.403Z,54.18
2023-05-15T06:37:03.926Z,54.31
2023-05-15T06:39:49.041Z,54.21
2023-05-15T06:42:34.436Z,54.19
2023-05-15T06:45:20.098Z,54.29
2023-05-15T06:48:05.579Z,54.10
2023-05-15T06:50:51.532Z,54.07
2023-05-15T06:53:37.079Z,53.98
2023-05-15T06:56:22.789Z,53.88
2023-05-15T06:59:09.376Z,54.18
2023-05-15T07:01:55.920Z,54.07
2023-05-15T07:04:41.574Z,53.98
2023-05-15T07:07:26.821Z,53.86
2023-05-15T07:10:12.291Z,53.77
2023-05-15T07:12:57.381Z,53.89
2023-05-15T07:15:42.629Z,54.08
2023-05-15T07:18:27.926Z,53.93
2023-05-15T07:21:13.308Z,54.04
2023-05-15T07:23:58.815Z,54.13
2023-05-15T07:26:57.641Z,53.86
2023-05-15T07:29:44.096Z,53.92
2023-05-15T07:32:29.394Z,53.91
2023-05-15T07:35:14.650Z,53.87
2023-05-15T07:38:00.084Z,53.94
2023-05-15T07:40:45.390Z,53.70
2023-05-15T07:43:30.894Z,53.87
2023-05-15T07:46:16.045Z,53.95
2023-05-15T07:49:01.457Z,53.78
2023-05-15T07:51:46.710Z,53.78
2023-05-15T07:54:32.206Z,53.77
2023-05-15T07:57:18.070Z,53.70
2023-05-15T08:00:10.906Z,53.58
2023-05-15T08:03:00.054Z,53.34
2023-05-15T08:05:45.738Z,53.33
2023-05-15T08:08:31.285Z,53.49
2023-05-15T08:11:16.584Z,53.46
2023-05-15T08:14:01.942Z,53.24
2023-05-15T08:16:51.391Z,53.23
2023-05-15T08:19:36.531Z,53.20
2023-05-15T08:22:21.918Z,53.33
2023-05-15T08:25:08.815Z,53.16
2023-05-15T08:27:53.921Z,53.12
2023-05-15T08:30:39.232Z,53.12
2023-05-15T08:33:24.543Z,53.35
2023-05-15T08:36:09.950Z,53.26
2023-05-15T08:38:55.218Z,53.07
2023-05-15T08:42:28.322Z,53.25
2023-05-15T08:45:14.565Z,53.28
2023-05-15T08:48:02.142Z,53.36
2023-05-15T08:50:49.633Z,53.47
2023-05-15T08:53:35.747Z,53.39
2023-05-15T08:56:21.968Z,53.43
2023-05-15T08:59:07.736Z,53.57
2023-05-15T09:01:53.917Z,53.21
2023-05-15T09:04:39.286Z,53.31
2023-05-15T09:07:25.603Z,52.97
2023-05-15T09:10:13.122Z,53.16
2023-05-15T09:13:01.853Z,53.49
2023-05-15T09:15:50.771Z,53.25
2023-05-15T09:18:39.109Z,53.20
2023-05-15T09:21:26.881Z,53.30
2023-05-15T09:24:19.866Z,53.21
2023-05-15T09:27:07.819Z,53.16
2023-05-15T09:29:56.346Z,53.18
2023-05-15T09:32:41.919Z,53.17
2023-05-15T09:35:47.874Z,53.21
2023-05-15T09:38:48.070Z,53.30
2023-05-15T09:41:34.181Z,52.94
2023-05-15T09:44:26.575Z,53.09
2023-05-15T09:47:16.870Z,53.22
2023-05-15T09:50:02.448Z,53.05
2023-05-15T09:52:47.774Z,53.06
2023-05-15T09:55:35.074Z,52.86
2023-05-15T09:58:20.825Z,52.89
2023-05-15T10:01:11.693Z,53.01
2023-05-15T10:04:01.771Z,52.96
2023-05-15T10:06:48.452Z,52.91
2023-05-15T10:09:33.915Z,52.57
2023-05-15T10:12:19.213Z,52.95
2023-05-15T10:15:05.684Z,52.82
2023-05-15T10:17:52.438Z,52.93
2023-05-15T10:20:37.689Z,53.32
2023-05-15T10:23:23.761Z,53.02
2023-05-15T10:26:21.599Z,52.97
2023-05-15T10:29:13.149Z,53.20
2023-05-15T10:32:01.070Z,53.01
2023-05-15T10:34:46.938Z,53.09
2023-05-15T10:37:34.229Z,52.90
2023-05-15T10:40:20.321Z,53.07
2023-05-15T10:43:06.633Z,52.95
2023-05-15T10:45:53.364Z,53.04
2023-05-15T10:48:39.551Z,52.72
2023-05-15T10:51:28.920Z,52.90
2023-05-15T10:54:15.107Z,52.70
2023-05-15T10:57:00.770Z,52.88
2023-05-15T10:59:46.069Z,52.60
2023-05-15T11:02:38.542Z,52.70
2023-05-15T11:05:24.793Z,52.85
2023-05-15T11:08:17.872Z,52.73
2023-05-15T11:11:03.257Z,52.73
2023-05-15T11:14:08.048Z,52.67
2023-05-15T11:16:53.680Z,52.31
2023-05-15T11:19:51.505Z,52.67
2023-05-15T11:22:37.580Z,52.75
2023-05-15T11:25:30.035Z,52.60
2023-05-15T11:28:23.546Z,52.71
2023-05-15T11:31:08.891Z,52.72
2023-05-15T11:33:54.432Z,52.67
2023-05-15T11:36:39.918Z,52.47
2023-05-15T11:39:26.119Z,52.56
2023-05-15T11:42:12.497Z,52.24
2023-05-15T11:44:58.188Z,52.56
2023-05-15T11:47:45.433Z,52.51
2023-05-15T11:50:33.081Z,52.76
2023-05-15T11:53:19.631Z,52.57
2023-05-15T11:56:05.295Z,52.60
2023-05-15T11:58:51.986Z,52.85
2023-05-15T12:01:47.344Z,52.80
2023-05-15T12:04:34.457Z,52.53
2023-05-15T12:07:19.986Z,52.93
2023-05-15T12:10:06.440Z,52.89
2023-05-15T12:12:51.813Z,52.73
2023-05-15T12:15:42.802Z,52.80
2023-05-15T12:18:28.263Z,52.92
2023-05-15T12:21:14.039Z,52.77
2023-05-15T12:24:07.851Z,52.72
2023-05-15T12:26:55.400Z,52.88
2023-05-15T12:29:43.486Z,52.66
2023-05-15T12:32:32.376Z,52.64
2023-05-15T12:35:19.231Z,52.73
2023-05-15T12:38:05.859Z,52.47
2023-05-15T12:40:54.447Z,52.41
2023-05-15T12:43:41.649Z,52.70
2023-05-15T12:46:31.865Z,52.52
2023-05-15T12:49:22.823Z,52.39
2023-05-15T12:52:15.862Z,52.46
2023-05-15T12:55:01.830Z,52.58
2023-05-15T12:57:47.445Z,52.48
2023-05-15T13:00:36.238Z,52.61
2023-05-15T13:03:25.142Z,52.71
2023-05-15T13:06:11.205Z,52.48
2023-05-15T13:08:56.916Z,52.42
2023-05-15T13:11:45.549Z,52.39
2023-05-15T13:14:34.629Z,52.52
2023-05-15T13:17:21.992Z,52.48
2023-05-15T13:20:08.797Z,52.61
2023-05-15T13:22:54.215Z,52.46
2023-05-15T13:25:39.604Z,52.48
2023-05-15T13:28:24.747Z,52.56
2023-05-15T13:31:10.078Z,52.63
2023-05-15T13:33:55.809Z,52.61
2023-05-15T13:36:41.167Z,53.15
2023-05-15T13:39:26.580Z,53.28
2023-05-15T13:42:12.435Z,53.87
2023-05-15T13:44:58.412Z,53.90
2023-05-15T13:47:44.757Z,53.76
2023-05-15T13:50:29.971Z,53.64
2023-05-15T13:53:17.060Z,53.62
2023-05-15T13:56:03.521Z,53.41
2023-05-15T13:58:48.944Z,52.69
2023-05-15T14:02:00.041Z,51.77
2023-05-15T14:04:47.273Z,51.97
2023-05-15T14:07:33.078Z,52.25
2023-05-15T14:10:18.444Z,52.80
2023-05-15T14:13:03.858Z,52.69
2023-05-15T14:15:49.187Z,52.83
2023-05-15T14:18:34.727Z,52.69
2023-05-15T14:21:20.223Z,53.12
2023-05-15T14:24:06.480Z,52.93
2023-05-15T14:26:51.956Z,53.07
2023-05-15T14:29:37.203Z,53.05
2023-05-15T14:32:23.753Z,53.00
2023-05-15T14:35:09.733Z,53.07
2023-05-15T14:37:54.969Z,52.84
2023-05-15T14:40:40.238Z,52.97
2023-05-15T14:43:25.604Z,52.88
2023-05-15T14:46:11.492Z,52.80
2023-05-15T14:48:57.020Z,52.90
2023-05-15T14:51:42.703Z,52.63
2023-05-15T14:54:28.811Z,52.04
2023-05-15T14:57:16.360Z,52.14
2023-05-15T15:00:02.142Z,52.14
2023-05-15T15:02:48.774Z,52.11
2023-05-15T15:05:34.303Z,52.33
2023-05-15T15:08:20.194Z,52.40
2023-05-15T15:11:06.492Z,52.71
2023-05-15T15:13:51.737Z,52.72
2023-05-15T15:17:04.576Z,52.60
2023-05-15T15:19:52.977Z,52.64
2023-05-15T15:22:39.967Z,52.74
2023-05-15T15:25:25.777Z,51.59
2023-05-15T15:28:11.068Z,51.37
2023-05-15T15:30:56.387Z,51.72
2023-05-15T15:33:41.518Z,51.85
2023-05-15T15:36:27.067Z,51.94
2023-05-15T15:39:13.179Z,52.27
2023-05-15T15:41:59.172Z,52.75
2023-05-15T15:44:44.603Z,52.75
2023-05-15T15:47:30.980Z,53.30
2023-05-15T15:50:17.134Z,53.35
2023-05-15T15:53:02.535Z,53.04
2023-05-15T15:55:47.920Z,53.48
2023-05-15T15:58:33.524Z,53.41
2023-05-15T16:01:19.112Z,53.39
2023-05-15T16:04:04.486Z,53.18
2023-05-15T16:06:50.042Z,53.39
2023-05-15T16:09:35.381Z,53.40
2023-05-15T16:12:23.373Z,53.43
2023-05-15T16:15:21.795Z,53.64
2023-05-15T16:18:09.022Z,53.88
2023-05-15T16:20:54.400Z,53.92
2023-05-15T16:23:41.315Z,54.40
2023-05-15T16:26:26.797Z,54.53
2023-05-15T16:29:12.503Z,54.66
2023-05-15T16:31:58.530Z,54.79
2023-05-15T16:34:44.292Z,54.97
2023-05-15T16:37:29.613Z,54.98
2023-05-15T16:40:15.389Z,55.45
2023-05-15T16:43:01.055Z,55.30
2023-05-15T16:45:46.399Z,54.96
2023-05-15T16:48:31.674Z,54.76
2023-05-15T16:51:17.574Z,54.61
2023-05-15T16:54:02.766Z,54.48
2023-05-15T16:56:48.201Z,54.55
2023-05-15T16:59:33.928Z,54.29
2023-05-15T17:02:19.613Z,54.17
2023-05-15T17:05:07.775Z,54.20
2023-05-15T17:07:52.996Z,54.27
2023-05-15T17:10:38.480Z,53.91
2023-05-15T17:13:25.456Z,53.95
2023-05-15T17:16:11.614Z,53.90
2023-05-15T17:18:56.981Z,53.63
2023-05-15T17:21:42.224Z,53.65
2023-05-15T17:24:35.571Z,53.79
2023-05-15T17:27:27.977Z,53.96
2023-05-15T17:30:13.542Z,53.70
2023-05-15T17:33:00.373Z,53.54
2023-05-15T17:35:46.403Z,53.36
2023-05-15T17:38:31.898Z,53.68
2023-05-15T17:41:17.141Z,53.54
2023-05-15T17:44:02.938Z,53.44
2023-05-15T17:46:48.209Z,53.66
2023-05-15T17:49:34.549Z,53.38
2023-05-15T17:52:20.062Z,53.37
2023-05-15T17:55:06.221Z,53.46
2023-05-15T17:57:52.301Z,53.46
2023-05-15T18:00:39.916Z,53.39
2023-05-15T18:03:26.090Z,53.43
2023-05-15T18:06:37.062Z,53.07
2023-05-15T18:09:24.252Z,52.83
2023-05-15T18:12:35.422Z,52.94
2023-05-15T18:15:20.717Z,53.03
2023-05-15T18:18:06.738Z,52.79
2023-05-15T18:25:39.554Z,52.77
2023-05-15T18:28:25.044Z,52.81
2023-05-15T18:31:10.856Z,52.77
2023-05-15T18:34:22.260Z,52.70
2023-05-15T18:37:08.205Z,52.62
2023-05-15T18:39:57.019Z,52.79
2023-05-15T18:42:42.505Z,52.75
2023-05-15T18:45:28.128Z,52.84
2023-05-15T18:48:41.402Z,52.68
2023-05-15T18:51:27.092Z,52.64
2023-05-15T18:54:12.877Z,52.77
2023-05-15T18:56:58.314Z,52.81
2023-05-15T18:59:44.509Z,52.80
2023-05-15T19:02:32.725Z,52.77
2023-05-15T19:05:18.415Z,52.65
2023-05-15T19:08:04.457Z,52.62
2023-05-15T19:10:51.038Z,52.70
2023-05-15T19:13:36.458Z,52.47
2023-05-15T19:16:21.892Z,52.53
2023-05-15T19:19:07.128Z,52.32
2023-05-15T19:21:53.146Z,52.50
2023-05-15T19:24:38.778Z,52.44
2023-05-15T19:27:24.000Z,52.35
2023-05-15T19:30:10.085Z,52.37
2023-05-15T19:32:55.745Z,52.13
2023-05-15T19:35:41.431Z,52.21
2023-05-15T19:38:26.981Z,52.29
2023-05-15T19:41:13.953Z,52.29
2023-05-15T19:44:01.028Z,52.14
2023-05-15T19:46:46.907Z,52.21
2023-05-15T19:49:32.400Z,52.23
2023-05-15T19:52:19.359Z,52.19
2023-05-15T19:55:04.989Z,52.10
2023-05-15T19:57:55.628Z,52.26
2023-05-15T20:00:41.605Z,52.12
2023-05-15T20:03:32.839Z,52.29
2023-05-15T20:06:18.454Z,52.06
2023-05-15T20:09:04.653Z,51.80
2023-05-15T20:11:50.412Z,51.82
2023-05-15T20:14:35.759Z,51.90
2023-05-15T20:17:21.240Z,51.96
2023-05-15T20:20:16.631Z,51.99
2023-05-15T20:23:02.143Z,51.84
2023-05-15T20:25:51.341Z,51.91
2023-05-15T20:28:36.654Z,52.10
2023-05-15T20:31:22.086Z,51.97
2023-05-15T20:34:08.345Z,51.93
2023-05-15T20:36:54.513Z,52.03
2023-05-15T20:39:39.867Z,52.56
2023-05-15T20:42:27.827Z,52.20
2023-05-15T20:45:13.985Z,52.49
2023-05-15T20:47:59.538Z,52.19
2023-05-15T20:50:44.827Z,52.62
2023-05-15T20:53:30.352Z,52.37
2023-05-15T20:56:15.801Z,52.29
2023-05-15T20:59:01.160Z,52.40
2023-05-15T21:01:46.250Z,52.40
2023-05-15T21:04:31.631Z,52.63
2023-05-15T21:07:16.893Z,52.46
2023-05-15T21:10:02.436Z,52.77
2023-05-15T21:12:48.248Z,52.66
2023-05-15T21:15:33.566Z,52.71
2023-05-15T21:18:19.105Z,52.61
2023-05-15T21:21:07.115Z,52.61
2023-05-15T21:23:52.248Z,52.54
2023-05-15T21:26:37.537Z,52.39
2023-05-15T21:29:22.950Z,52.39
2023-05-15T21:32:08.545Z,52.11
2023-05-15T21:34:53.915Z,52.04
2023-05-15T21:37:39.472Z,52.03
2023-05-15T21:40:25.181Z,52.13
2023-05-15T21:43:10.802Z,52.23
2023-05-15T21:45:56.751Z,51.93
2023-05-15T21:48:42.495Z,52.06
2023-05-15T21:51:27.842Z,51.75
2023-05-15T21:54:13.184Z,51.76
2023-05-15T21:56:58.599Z,51.82
2023-05-15T21:59:43.916Z,51.88
2023-05-15T22:02:29.230Z,51.81
2023-05-15T22:05:15.389Z,51.58
2023-05-15T22:08:01.208Z,51.79
2023-05-15T22:10:46.234Z,51.61
2023-05-15T22:13:31.526Z,51.81
2023-05-15T22:16:17.040Z,51.50
2023-05-15T22:19:03.054Z,51.68
2023-05-15T22:21:48.360Z,51.50
2023-05-15T22:24:33.673Z,51.67
2023-05-15T22:27:19.052Z,51.44
2023-05-15T22:30:05.095Z,51.47
2023-05-15T22:32:51.437Z,51.74
2023-05-15T22:35:37.253Z,51.37
2023-05-15T22:38:22.460Z,51.41
2023-05-15T22:41:08.869Z,51.55
2023-05-15T22:43:54.679Z,51.31
2023-05-15T22:46:40.306Z,51.35
2023-05-15T22:49:26.477Z,51.29
2023-05-15T22:52:13.646Z,51.23
2023-05-15T22:54:59.578Z,50.99
2023-05-15T22:57:45.045Z,51.33
2023-05-15T23:00:30.896Z,51.16
2023-05-15T23:03:16.808Z,51.30
2023-05-15T23:06:02.178Z,51.17
2023-05-15T23:08:47.480Z,51.14
2023-05-15T23:11:32.665Z,51.08
2023-05-15T23:14:17.936Z,51.04
2023-05-15T23:17:03.921Z,51.00
2023-05-15T23:19:49.012Z,51.02
2023-05-15T23:22:34.324Z,51.08
2023-05-15T23:25:19.951Z,51.11
2023-05-15T23:28:05.562Z,51.06
2023-05-15T23:30:54.985Z,50.63
2023-05-15T23:33:40.762Z,51.02
2023-05-15T23:36:25.932Z,50.97
2023-05-15T23:39:11.804Z,50.82
2023-05-15T23:41:57.264Z,50.85
2023-05-15T23:44:43.004Z,50.73
2023-05-15T23:47:28.399Z,50.82
2023-05-15T23:50:13.737Z,50.50
2023-05-15T23:52:59.078Z,50.49
2023-05-15T23:55:44.278Z,50.58
2023-05-15T23:58:29.605Z,50.58
